sensor_id;sensor_type;location;lat;lon;timestamp;P1;durP1;ratioP1;P2;durP2;ratioP2
39176;SDS011;24904;52.208;21.192;2023-05-10T00:02:05;11.70;;;5.70;;
39176;SDS011;24904;52.208;21.192;2023-05-10T00:07:08;10.00;;;5.40;;
39176;SDS011;24904;52.208;21.192;2023-05-10T00:12:11;10.00;;;4.90;;
39176;SDS011;24904;52.208;21.192;2023-05-10T00:17:15;11.20;;;5.40;;
39176;SDS011;24904;52.208;21.192;2023-05-10T00:22:18;8.00;;;5.00;;
39176;SDS011;24904;52.208;21.192;2023-05-10T00:27:21;8.80;;;5.00;;
39176;SDS011;24904;52.208;21.192;2023-05-10T00:32:24;8.20;;;4.90;;
39176;SDS011;24904;52.208;21.192;2023-05-10T00:37:27;9.00;;;5.00;;
39176;SDS011;24904;52.208;21.192;2023-05-10T00:42:30;10.10;;;5.00;;
39176;SDS011;24904;52.208;21.192;2023-05-10T00:47:33;9.30;;;5.10;;
39176;SDS011;24904;52.208;21.192;2023-05-10T00:52:36;10.70;;;4.60;;
39176;SDS011;24904;52.208;21.192;2023-05-10T00:57:40;7.50;;;4.60;;
39176;SDS011;24904;52.208;21.192;2023-05-10T01:02:44;11.20;;;4.60;;
39176;SDS011;24904;52.208;21.192;2023-05-10T01:07:47;8.80;;;4.40;;
39176;SDS011;24904;52.208;21.192;2023-05-10T01:12:50;10.80;;;5.10;;
39176;SDS011;24904;52.208;21.192;2023-05-10T01:17:53;9.10;;;4.70;;
39176;SDS011;24904;52.208;21.192;2023-05-10T01:23:08;8.10;;;4.30;;
39176;SDS011;24904;52.208;21.192;2023-05-10T01:28:34;9.60;;;4.60;;
39176;SDS011;24904;52.208;21.192;2023-05-10T01:33:54;13.70;;;4.90;;
39176;SDS011;24904;52.208;21.192;2023-05-10T01:39:02;8.20;;;4.20;;
39176;SDS011;24904;52.208;21.192;2023-05-10T01:44:16;7.50;;;3.50;;
39176;SDS011;24904;52.208;21.192;2023-05-10T01:49:26;7.30;;;4.10;;
39176;SDS011;24904;52.208;21.192;2023-05-10T01:54:33;19.90;;;4.40;;
39176;SDS011;24904;52.208;21.192;2023-05-10T01:59:40;5.60;;;3.30;;
39176;SDS011;24904;52.208;21.192;2023-05-10T02:04:44;8.00;;;4.30;;
39176;SDS011;24904;52.208;21.192;2023-05-10T02:09:49;8.80;;;4.80;;
39176;SDS011;24904;52.208;21.192;2023-05-10T02:14:53;7.00;;;3.40;;
39176;SDS011;24904;52.208;21.192;2023-05-10T02:19:57;6.80;;;4.00;;
39176;SDS011;24904;52.208;21.192;2023-05-10T02:25:03;7.90;;;4.00;;
39176;SDS011;24904;52.208;21.192;2023-05-10T02:30:08;10.10;;;4.70;;
39176;SDS011;24904;52.208;21.192;2023-05-10T02:35:12;8.30;;;4.30;;
39176;SDS011;24904;52.208;21.192;2023-05-10T02:40:16;14.00;;;4.50;;
39176;SDS011;24904;52.208;21.192;2023-05-10T02:45:21;7.80;;;4.20;;
39176;SDS011;24904;52.208;21.192;2023-05-10T02:50:29;9.30;;;5.10;;
39176;SDS011;24904;52.208;21.192;2023-05-10T02:55:36;7.10;;;3.90;;
39176;SDS011;24904;52.208;21.192;2023-05-10T03:00:42;9.30;;;4.70;;
39176;SDS011;24904;52.208;21.192;2023-05-10T03:05:46;7.40;;;4.30;;
39176;SDS011;24904;52.208;21.192;2023-05-10T03:10:53;7.60;;;4.40;;
39176;SDS011;24904;52.208;21.192;2023-05-10T03:16:06;11.20;;;4.50;;
39176;SDS011;24904;52.208;21.192;2023-05-10T03:26:23;9.00;;;4.60;;
39176;SDS011;24904;52.208;21.192;2023-05-10T03:31:33;11.40;;;4.60;;
39176;SDS011;24904;52.208;21.192;2023-05-10T03:36:36;9.20;;;4.70;;
39176;SDS011;24904;52.208;21.192;2023-05-10T03:41:39;7.40;;;4.20;;
39176;SDS011;24904;52.208;21.192;2023-05-10T03:46:43;13.70;;;4.60;;
39176;SDS011;24904;52.208;21.192;2023-05-10T03:51:47;11.30;;;4.30;;
39176;SDS011;24904;52.208;21.192;2023-05-10T03:56:50;8.00;;;4.00;;
39176;SDS011;24904;52.208;21.192;2023-05-10T04:01:54;11.20;;;4.70;;
39176;SDS011;24904;52.208;21.192;2023-05-10T04:06:57;5.80;;;4.00;;
39176;SDS011;24904;52.208;21.192;2023-05-10T04:12:00;8.70;;;4.20;;
39176;SDS011;24904;52.208;21.192;2023-05-10T04:17:03;7.80;;;4.30;;
39176;SDS011;24904;52.208;21.192;2023-05-10T04:22:06;10.40;;;4.20;;
39176;SDS011;24904;52.208;21.192;2023-05-10T04:27:09;8.30;;;4.30;;
39176;SDS011;24904;52.208;21.192;2023-05-10T04:32:13;6.50;;;4.20;;
39176;SDS011;24904;52.208;21.192;2023-05-10T04:37:17;12.20;;;3.80;;
39176;SDS011;24904;52.208;21.192;2023-05-10T04:42:20;9.50;;;3.70;;
39176;SDS011;24904;52.208;21.192;2023-05-10T04:47:23;21.50;;;4.70;;
39176;SDS011;24904;52.208;21.192;2023-05-10T04:52:26;6.40;;;3.70;;
39176;SDS011;24904;52.208;21.192;2023-05-10T04:57:29;10.50;;;4.00;;
39176;SDS011;24904;52.208;21.192;2023-05-10T05:02:32;9.40;;;3.70;;
39176;SDS011;24904;52.208;21.192;2023-05-10T05:07:35;10.60;;;3.50;;
39176;SDS011;24904;52.208;21.192;2023-05-10T05:12:39;8.20;;;4.30;;
39176;SDS011;24904;52.208;21.192;2023-05-10T05:17:42;10.80;;;3.90;;
39176;SDS011;24904;52.208;21.192;2023-05-10T05:22:45;8.20;;;3.70;;
39176;SDS011;24904;52.208;21.192;2023-05-10T05:27:48;8.10;;;3.80;;
39176;SDS011;24904;52.208;21.192;2023-05-10T05:32:51;6.00;;;3.20;;
39176;SDS011;24904;52.208;21.192;2023-05-10T05:37:54;9.40;;;3.30;;
39176;SDS011;24904;52.208;21.192;2023-05-10T05:42:57;11.40;;;4.30;;
39176;SDS011;24904;52.208;21.192;2023-05-10T05:48:00;10.40;;;3.60;;
39176;SDS011;24904;52.208;21.192;2023-05-10T05:53:04;10.60;;;3.30;;
39176;SDS011;24904;52.208;21.192;2023-05-10T05:58:07;7.40;;;3.40;;
39176;SDS011;24904;52.208;21.192;2023-05-10T06:03:10;13.80;;;3.50;;
39176;SDS011;24904;52.208;21.192;2023-05-10T06:08:13;9.50;;;3.70;;
39176;SDS011;24904;52.208;21.192;2023-05-10T06:13:16;10.30;;;3.00;;
39176;SDS011;24904;52.208;21.192;2023-05-10T06:18:19;8.40;;;2.90;;
39176;SDS011;24904;52.208;21.192;2023-05-10T06:23:22;10.80;;;2.70;;
39176;SDS011;24904;52.208;21.192;2023-05-10T06:28:26;6.20;;;3.30;;
39176;SDS011;24904;52.208;21.192;2023-05-10T06:33:29;10.50;;;2.90;;
39176;SDS011;24904;52.208;21.192;2023-05-10T06:38:32;8.90;;;2.80;;
39176;SDS011;24904;52.208;21.192;2023-05-10T06:43:35;6.40;;;2.80;;
39176;SDS011;24904;52.208;21.192;2023-05-10T06:48:41;7.40;;;2.90;;
39176;SDS011;24904;52.208;21.192;2023-05-10T06:53:44;6.70;;;2.60;;
39176;SDS011;24904;52.208;21.192;2023-05-10T06:58:47;7.10;;;2.70;;
39176;SDS011;24904;52.208;21.192;2023-05-10T07:03:50;5.80;;;2.90;;
39176;SDS011;24904;52.208;21.192;2023-05-10T07:08:54;11.70;;;2.60;;
39176;SDS011;24904;52.208;21.192;2023-05-10T07:13:58;5.70;;;2.60;;
39176;SDS011;24904;52.208;21.192;2023-05-10T07:19:02;8.30;;;2.20;;
39176;SDS011;24904;52.208;21.192;2023-05-10T07:24:07;8.00;;;2.30;;
39176;SDS011;24904;52.208;21.192;2023-05-10T07:29:11;8.30;;;2.60;;
39176;SDS011;24904;52.208;21.192;2023-05-10T07:34:15;8.20;;;2.60;;
39176;SDS011;24904;52.208;21.192;2023-05-10T07:39:19;6.20;;;2.50;;
39176;SDS011;24904;52.208;21.192;2023-05-10T07:44:23;3.70;;;2.00;;
39176;SDS011;24904;52.208;21.192;2023-05-10T07:49:28;9.50;;;2.40;;
39176;SDS011;24904;52.208;21.192;2023-05-10T07:54:32;6.50;;;1.90;;
39176;SDS011;24904;52.208;21.192;2023-05-10T07:59:37;5.60;;;2.10;;
39176;SDS011;24904;52.208;21.192;2023-05-10T08:15:08;7.30;;;2.20;;
39176;SDS011;24904;52.208;21.192;2023-05-10T08:20:12;4.60;;;2.20;;
39176;SDS011;24904;52.208;21.192;2023-05-10T08:25:17;3.30;;;1.70;;
39176;SDS011;24904;52.208;21.192;2023-05-10T08:30:21;4.60;;;1.70;;
39176;SDS011;24904;52.208;21.192;2023-05-10T08:35:24;9.10;;;3.10;;
39176;SDS011;24904;52.208;21.192;2023-05-10T08:40:27;7.90;;;2.40;;
39176;SDS011;24904;52.208;21.192;2023-05-10T08:45:31;8.10;;;2.10;;
39176;SDS011;24904;52.208;21.192;2023-05-10T08:50:36;6.60;;;2.00;;
39176;SDS011;24904;52.208;21.192;2023-05-10T08:55:40;5.50;;;2.30;;
39176;SDS011;24904;52.208;21.192;2023-05-10T09:00:43;5.50;;;1.90;;
39176;SDS011;24904;52.208;21.192;2023-05-10T09:05:47;4.10;;;2.20;;
39176;SDS011;24904;52.208;21.192;2023-05-10T09:10:50;5.50;;;2.10;;
39176;SDS011;24904;52.208;21.192;2023-05-10T09:15:54;6.20;;;2.20;;
39176;SDS011;24904;52.208;21.192;2023-05-10T09:20:57;4.80;;;2.10;;
39176;SDS011;24904;52.208;21.192;2023-05-10T09:26:03;3.10;;;2.00;;
39176;SDS011;24904;52.208;21.192;2023-05-10T09:31:07;5.20;;;1.90;;
39176;SDS011;24904;52.208;21.192;2023-05-10T09:36:10;7.70;;;2.80;;
39176;SDS011;24904;52.208;21.192;2023-05-10T09:41:17;4.80;;;2.30;;
39176;SDS011;24904;52.208;21.192;2023-05-10T09:46:21;5.00;;;1.90;;
39176;SDS011;24904;52.208;21.192;2023-05-10T09:51:24;5.20;;;2.10;;
39176;SDS011;24904;52.208;21.192;2023-05-10T09:56:38;6.90;;;2.00;;
39176;SDS011;24904;52.208;21.192;2023-05-10T10:01:42;5.90;;;1.90;;
39176;SDS011;24904;52.208;21.192;2023-05-10T10:07:02;7.80;;;1.90;;
39176;SDS011;24904;52.208;21.192;2023-05-10T10:12:06;5.40;;;2.10;;
39176;SDS011;24904;52.208;21.192;2023-05-10T10:17:09;8.90;;;1.80;;
39176;SDS011;24904;52.208;21.192;2023-05-10T10:22:13;11.30;;;2.40;;
39176;SDS011;24904;52.208;21.192;2023-05-10T10:27:19;2.60;;;1.70;;
39176;SDS011;24904;52.208;21.192;2023-05-10T10:32:25;5.90;;;2.00;;
39176;SDS011;24904;52.208;21.192;2023-05-10T10:37:45;10.10;;;2.50;;
39176;SDS011;24904;52.208;21.192;2023-05-10T10:42:49;4.10;;;1.70;;
39176;SDS011;24904;52.208;21.192;2023-05-10T10:53:26;7.90;;;2.20;;
39176;SDS011;24904;52.208;21.192;2023-05-10T10:58:29;6.30;;;2.00;;
39176;SDS011;24904;52.208;21.192;2023-05-10T11:03:33;5.20;;;2.00;;
39176;SDS011;24904;52.208;21.192;2023-05-10T11:08:41;7.30;;;2.50;;
39176;SDS011;24904;52.208;21.192;2023-05-10T11:13:45;6.10;;;2.40;;
39176;SDS011;24904;52.208;21.192;2023-05-10T11:18:53;7.10;;;2.00;;
39176;SDS011;24904;52.208;21.192;2023-05-10T11:24:00;5.30;;;2.30;;
39176;SDS011;24904;52.208;21.192;2023-05-10T11:29:07;4.50;;;2.10;;
39176;SDS011;24904;52.208;21.192;2023-05-10T11:34:10;6.30;;;2.40;;
39176;SDS011;24904;52.208;21.192;2023-05-10T11:39:13;6.00;;;2.10;;
39176;SDS011;24904;52.208;21.192;2023-05-10T11:44:16;7.40;;;2.50;;
39176;SDS011;24904;52.208;21.192;2023-05-10T11:49:19;6.60;;;2.10;;
39176;SDS011;24904;52.208;21.192;2023-05-10T11:54:26;9.30;;;2.40;;
39176;SDS011;24904;52.208;21.192;2023-05-10T11:59:29;12.00;;;2.60;;
39176;SDS011;24904;52.208;21.192;2023-05-10T12:04:32;4.10;;;2.10;;
39176;SDS011;24904;52.208;21.192;2023-05-10T12:09:35;9.00;;;2.90;;
39176;SDS011;24904;52.208;21.192;2023-05-10T12:14:38;8.60;;;2.10;;
39176;SDS011;24904;52.208;21.192;2023-05-10T12:19:41;4.90;;;2.00;;
39176;SDS011;24904;52.208;21.192;2023-05-10T12:24:46;7.60;;;2.50;;
39176;SDS011;24904;52.208;21.192;2023-05-10T12:29:48;6.00;;;2.10;;
39176;SDS011;24904;52.208;21.192;2023-05-10T12:34:52;7.80;;;2.10;;
39176;SDS011;24904;52.208;21.192;2023-05-10T12:39:55;3.00;;;1.80;;
39176;SDS011;24904;52.208;21.192;2023-05-10T12:44:58;4.10;;;2.00;;
39176;SDS011;24904;52.208;21.192;2023-05-10T12:50:01;6.30;;;2.90;;
39176;SDS011;24904;52.208;21.192;2023-05-10T12:55:06;6.20;;;2.20;;
39176;SDS011;24904;52.208;21.192;2023-05-10T13:00:10;9.80;;;2.50;;
39176;SDS011;24904;52.208;21.192;2023-05-10T13:05:15;3.70;;;2.10;;
39176;SDS011;24904;52.208;21.192;2023-05-10T13:10:18;3.50;;;2.30;;
39176;SDS011;24904;52.208;21.192;2023-05-10T13:15:22;5.60;;;1.90;;
39176;SDS011;24904;52.208;21.192;2023-05-10T13:20:25;5.10;;;2.10;;
39176;SDS011;24904;52.208;21.192;2023-05-10T13:25:28;12.60;;;2.20;;
39176;SDS011;24904;52.208;21.192;2023-05-10T13:30:31;4.40;;;2.10;;
39176;SDS011;24904;52.208;21.192;2023-05-10T13:35:34;7.10;;;2.30;;
39176;SDS011;24904;52.208;21.192;2023-05-10T13:40:37;7.40;;;2.10;;
39176;SDS011;24904;52.208;21.192;2023-05-10T13:45:40;8.80;;;2.00;;
39176;SDS011;24904;52.208;21.192;2023-05-10T13:50:43;12.80;;;3.10;;
39176;SDS011;24904;52.208;21.192;2023-05-10T13:55:47;7.40;;;2.40;;
39176;SDS011;24904;52.208;21.192;2023-05-10T14:00:50;3.50;;;2.00;;
39176;SDS011;24904;52.208;21.192;2023-05-10T14:05:53;5.50;;;2.00;;
39176;SDS011;24904;52.208;21.192;2023-05-10T14:10:56;6.40;;;1.60;;
39176;SDS011;24904;52.208;21.192;2023-05-10T14:15:59;10.20;;;2.20;;
39176;SDS011;24904;52.208;21.192;2023-05-10T14:21:03;10.20;;;2.00;;
39176;SDS011;24904;52.208;21.192;2023-05-10T14:26:06;4.10;;;2.20;;
39176;SDS011;24904;52.208;21.192;2023-05-10T14:31:09;5.30;;;2.40;;
39176;SDS011;24904;52.208;21.192;2023-05-10T14:36:12;4.90;;;2.30;;
39176;SDS011;24904;52.208;21.192;2023-05-10T14:41:15;6.30;;;2.00;;
39176;SDS011;24904;52.208;21.192;2023-05-10T14:46:19;3.70;;;2.20;;
39176;SDS011;24904;52.208;21.192;2023-05-10T14:51:22;7.00;;;2.30;;
39176;SDS011;24904;52.208;21.192;2023-05-10T14:56:25;7.40;;;1.70;;
39176;SDS011;24904;52.208;21.192;2023-05-10T15:01:28;5.90;;;1.90;;
39176;SDS011;24904;52.208;21.192;2023-05-10T15:06:33;3.40;;;1.70;;
39176;SDS011;24904;52.208;21.192;2023-05-10T15:11:36;4.10;;;1.50;;
39176;SDS011;24904;52.208;21.192;2023-05-10T15:16:39;7.50;;;1.90;;
39176;SDS011;24904;52.208;21.192;2023-05-10T15:21:42;4.30;;;1.90;;
39176;SDS011;24904;52.208;21.192;2023-05-10T15:26:45;6.60;;;2.40;;
39176;SDS011;24904;52.208;21.192;2023-05-10T15:31:49;7.50;;;2.00;;
39176;SDS011;24904;52.208;21.192;2023-05-10T15:36:52;5.30;;;1.90;;
39176;SDS011;24904;52.208;21.192;2023-05-10T15:41:55;6.50;;;1.90;;
39176;SDS011;24904;52.208;21.192;2023-05-10T15:46:58;3.30;;;2.20;;
39176;SDS011;24904;52.208;21.192;2023-05-10T15:52:01;7.70;;;1.90;;
39176;SDS011;24904;52.208;21.192;2023-05-10T15:57:04;3.90;;;1.90;;
39176;SDS011;24904;52.208;21.192;2023-05-10T16:02:08;9.30;;;1.70;;
39176;SDS011;24904;52.208;21.192;2023-05-10T16:07:12;5.20;;;1.50;;
39176;SDS011;24904;52.208;21.192;2023-05-10T16:12:15;3.70;;;2.00;;
39176;SDS011;24904;52.208;21.192;2023-05-10T16:17:18;6.10;;;2.10;;
39176;SDS011;24904;52.208;21.192;2023-05-10T16:22:21;3.80;;;1.90;;
39176;SDS011;24904;52.208;21.192;2023-05-10T16:27:27;8.20;;;1.60;;
39176;SDS011;24904;52.208;21.192;2023-05-10T16:32:30;7.60;;;2.10;;
39176;SDS011;24904;52.208;21.192;2023-05-10T16:37:33;3.40;;;1.90;;
39176;SDS011;24904;52.208;21.192;2023-05-10T16:42:36;10.10;;;2.40;;
39176;SDS011;24904;52.208;21.192;2023-05-10T16:47:39;4.70;;;2.10;;
39176;SDS011;24904;52.208;21.192;2023-05-10T16:52:43;10.50;;;2.00;;
39176;SDS011;24904;52.208;21.192;2023-05-10T16:57:47;3.60;;;1.80;;
39176;SDS011;24904;52.208;21.192;2023-05-10T17:02:50;4.80;;;1.60;;
39176;SDS011;24904;52.208;21.192;2023-05-10T17:07:54;5.90;;;1.90;;
39176;SDS011;24904;52.208;21.192;2023-05-10T17:12:57;7.70;;;2.60;;
39176;SDS011;24904;52.208;21.192;2023-05-10T17:18:00;6.00;;;1.90;;
39176;SDS011;24904;52.208;21.192;2023-05-10T17:23:03;5.10;;;1.90;;
39176;SDS011;24904;52.208;21.192;2023-05-10T17:28:06;4.50;;;1.80;;
39176;SDS011;24904;52.208;21.192;2023-05-10T17:33:09;5.60;;;1.60;;
39176;SDS011;24904;52.208;21.192;2023-05-10T17:38:12;5.80;;;1.70;;
39176;SDS011;24904;52.208;21.192;2023-05-10T17:43:15;4.30;;;2.00;;
39176;SDS011;24904;52.208;21.192;2023-05-10T17:48:19;3.80;;;2.00;;
39176;SDS011;24904;52.208;21.192;2023-05-10T17:53:22;4.20;;;2.00;;
39176;SDS011;24904;52.208;21.192;2023-05-10T17:58:25;3.50;;;2.10;;
39176;SDS011;24904;52.208;21.192;2023-05-10T18:03:28;4.10;;;2.20;;
39176;SDS011;24904;52.208;21.192;2023-05-10T18:08:31;8.40;;;2.20;;
39176;SDS011;24904;52.208;21.192;2023-05-10T18:13:34;5.40;;;2.10;;
39176;SDS011;24904;52.208;21.192;2023-05-10T18:18:37;8.30;;;2.30;;
39176;SDS011;24904;52.208;21.192;2023-05-10T18:23:40;11.90;;;2.60;;
39176;SDS011;24904;52.208;21.192;2023-05-10T18:28:43;6.60;;;2.70;;
39176;SDS011;24904;52.208;21.192;2023-05-10T18:33:45;6.50;;;2.40;;
39176;SDS011;24904;52.208;21.192;2023-05-10T18:38:49;6.00;;;2.60;;
39176;SDS011;24904;52.208;21.192;2023-05-10T18:43:52;4.60;;;1.80;;
39176;SDS011;24904;52.208;21.192;2023-05-10T18:48:55;10.80;;;2.80;;
39176;SDS011;24904;52.208;21.192;2023-05-10T18:53:58;7.10;;;2.90;;
39176;SDS011;24904;52.208;21.192;2023-05-10T18:59:01;11.10;;;3.10;;
39176;SDS011;24904;52.208;21.192;2023-05-10T19:04:04;8.60;;;4.00;;
39176;SDS011;24904;52.208;21.192;2023-05-10T19:09:08;7.00;;;4.20;;
39176;SDS011;24904;52.208;21.192;2023-05-10T19:14:12;7.50;;;4.00;;
39176;SDS011;24904;52.208;21.192;2023-05-10T19:19:15;8.50;;;3.60;;
39176;SDS011;24904;52.208;21.192;2023-05-10T19:24:18;9.90;;;3.30;;
39176;SDS011;24904;52.208;21.192;2023-05-10T19:29:23;8.80;;;3.90;;
39176;SDS011;24904;52.208;21.192;2023-05-10T19:34:26;7.90;;;4.10;;
39176;SDS011;24904;52.208;21.192;2023-05-10T19:39:29;5.90;;;3.80;;
39176;SDS011;24904;52.208;21.192;2023-05-10T19:44:33;7.00;;;3.90;;
39176;SDS011;24904;52.208;21.192;2023-05-10T19:49:36;7.30;;;4.00;;
39176;SDS011;24904;52.208;21.192;2023-05-10T19:54:39;8.80;;;4.40;;
39176;SDS011;24904;52.208;21.192;2023-05-10T19:59:44;9.60;;;4.30;;
39176;SDS011;24904;52.208;21.192;2023-05-10T20:04:47;10.50;;;4.50;;
39176;SDS011;24904;52.208;21.192;2023-05-10T20:09:50;10.40;;;4.70;;
39176;SDS011;24904;52.208;21.192;2023-05-10T20:14:53;13.20;;;5.30;;
39176;SDS011;24904;52.208;21.192;2023-05-10T20:19:56;11.40;;;5.30;;
39176;SDS011;24904;52.208;21.192;2023-05-10T20:24:59;10.60;;;5.10;;
39176;SDS011;24904;52.208;21.192;2023-05-10T20:30:03;13.60;;;5.50;;
39176;SDS011;24904;52.208;21.192;2023-05-10T20:35:08;12.40;;;5.80;;
39176;SDS011;24904;52.208;21.192;2023-05-10T20:40:12;9.00;;;5.10;;
39176;SDS011;24904;52.208;21.192;2023-05-10T20:45:15;8.00;;;4.90;;
39176;SDS011;24904;52.208;21.192;2023-05-10T20:50:18;11.30;;;5.50;;
39176;SDS011;24904;52.208;21.192;2023-05-10T20:55:22;10.50;;;4.50;;
39176;SDS011;24904;52.208;21.192;2023-05-10T21:00:25;12.40;;;4.40;;
39176;SDS011;24904;52.208;21.192;2023-05-10T21:05:28;9.10;;;4.20;;
39176;SDS011;24904;52.208;21.192;2023-05-10T21:10:31;12.10;;;4.20;;
39176;SDS011;24904;52.208;21.192;2023-05-10T21:15:35;7.60;;;3.80;;
39176;SDS011;24904;52.208;21.192;2023-05-10T21:20:38;8.80;;;4.50;;
39176;SDS011;24904;52.208;21.192;2023-05-10T21:25:41;10.90;;;4.30;;
39176;SDS011;24904;52.208;21.192;2023-05-10T21:30:44;8.30;;;3.90;;
39176;SDS011;24904;52.208;21.192;2023-05-10T21:35:47;11.00;;;4.00;;
39176;SDS011;24904;52.208;21.192;2023-05-10T21:40:51;9.70;;;4.60;;
39176;SDS011;24904;52.208;21.192;2023-05-10T21:45:54;5.70;;;4.10;;
39176;SDS011;24904;52.208;21.192;2023-05-10T21:50:57;6.50;;;4.20;;
39176;SDS011;24904;52.208;21.192;2023-05-10T21:56:01;8.70;;;3.90;;
39176;SDS011;24904;52.208;21.192;2023-05-10T22:01:04;8.40;;;4.20;;
39176;SDS011;24904;52.208;21.192;2023-05-10T22:06:07;8.30;;;4.10;;
39176;SDS011;24904;52.208;21.192;2023-05-10T22:11:10;10.40;;;4.00;;
39176;SDS011;24904;52.208;21.192;2023-05-10T22:16:14;7.10;;;4.20;;
39176;SDS011;24904;52.208;21.192;2023-05-10T22:21:17;9.90;;;4.00;;
39176;SDS011;24904;52.208;21.192;2023-05-10T22:26:20;6.70;;;3.50;;
39176;SDS011;24904;52.208;21.192;2023-05-10T22:31:23;7.30;;;4.00;;
39176;SDS011;24904;52.208;21.192;2023-05-10T22:36:26;11.30;;;4.50;;
39176;SDS011;24904;52.208;21.192;2023-05-10T22:41:29;10.10;;;4.30;;
39176;SDS011;24904;52.208;21.192;2023-05-10T22:46:33;13.30;;;4.10;;
39176;SDS011;24904;52.208;21.192;2023-05-10T22:51:37;6.00;;;3.70;;
39176;SDS011;24904;52.208;21.192;2023-05-10T22:56:40;7.20;;;3.60;;
39176;SDS011;24904;52.208;21.192;2023-05-10T23:01:43;10.30;;;3.60;;
39176;SDS011;24904;52.208;21.192;2023-05-10T23:06:46;6.00;;;3.40;;
39176;SDS011;24904;52.208;21.192;2023-05-10T23:11:49;9.70;;;4.20;;
39176;SDS011;24904;52.208;21.192;2023-05-10T23:16:52;7.90;;;3.50;;
39176;SDS011;24904;52.208;21.192;2023-05-10T23:21:55;7.00;;;3.40;;
39176;SDS011;24904;52.208;21.192;2023-05-10T23:26:59;6.10;;;3.10;;
39176;SDS011;24904;52.208;21.192;2023-05-10T23:32:02;9.10;;;3.60;;
39176;SDS011;24904;52.208;21.192;2023-05-10T23:37:06;8.90;;;3.30;;
39176;SDS011;24904;52.208;21.192;2023-05-10T23:42:09;6.60;;;3.10;;
39176;SDS011;24904;52.208;21.192;2023-05-10T23:47:12;5.30;;;3.40;;
39176;SDS011;24904;52.208;21.192;2023-05-10T23:52:15;5.20;;;2.90;;
39176;SDS011;24904;52.208;21.192;2023-05-10T23:57:18;7.30;;;3.20;;
